Vers la page d'accueil de NAV CANADA Ouverture d'une nouvelle session Chercher sur le site AWWS Clause de non-reponsabilité To the equivalent English page Trucs et astuces FAQ Quoi de neuf sur le site Vers la section Prévisions et observations / NOTAM Vers le site web pour <<Déposer un plan de vol>> Publications et liens importants Mise à jour du profil d'usager Numéros de téléphone des FIC Mes données météo personnelles Données météo de route Données météo régionales Données météo locales Vers la section Prévisions et observations / NOTAM
Requête générée le 2021/09/16 à 15:58:36 UTC. L'information météorologique disponible à ce moment est affichée.

METAR/TAF

Si vous notez des différences entre le METAR/TAF codé et le METAR/TAF en langage clair, veuillez utiliser la version codée. Les bulletins LWIS ne sont pas décodés en langage clair.

OTTAWA/MACDONALD-CARTIER INTL/ON    

METAR CYOW 161500Z 11005KT 090V180 15SM FEW160 FEW200 SCT250 20/13 A3026 RMK AC I2CI2 AC TR SLP251 DENSITY ALT 700FT=
METAR
LIEU
CYOW - OTTAWA/MACDONALD-CARTIER INTL/ON
DATE - HEURE
16 SEPTEMBRE 2021 - 1500 UTC
VENT
110 VRAIS @ 5  NOEUDS
VARIATION
90 <-> 180  DEG
VISIBILITE
15 MILLES TERR.
PORTEE VISUELLE DE PISTE
METEO
NEBULOSITE
QUELQUES NUAGES (1/8 - 2/8) 16000  PI
QUELQUES NUAGES (1/8 - 2/8) 20000  PI
NUAGES EPARS (3/8 - 4/8) 25000  PI
TEMP / PT DE ROSEE
20 C / 13 C
ALTIMETRE
30.26 PO HG
TEMPS RECENT
CISAILLEMENT

METAR CYOW 161400Z 00000KT 15SM FEW020 FEW180 SCT200 BKN250 18/14 A3026 RMK CU1 1CI2CI2 CU TR SLP250 DENSITY ALT 500FT=
METAR
LIEU
CYOW - OTTAWA/MACDONALD-CARTIER INTL/ON
DATE - HEURE
16 SEPTEMBRE 2021 - 1400 UTC
VENT
CALME
VISIBILITE
15 MILLES TERR.
PORTEE VISUELLE DE PISTE
METEO
NEBULOSITE
QUELQUES NUAGES (1/8 - 2/8) 2000  PI
QUELQUES NUAGES (1/8 - 2/8) 18000  PI
NUAGES EPARS (3/8 - 4/8) 20000  PI
NUAGES FRAGMENTES (5/8 - 7/8) 25000  PI
TEMP / PT DE ROSEE
18 C / 14 C
ALTIMETRE
30.26 PO HG
TEMPS RECENT
CISAILLEMENT

METAR CYOW 161300Z 10003KT 15SM FEW020 FEW200 SCT250 15/13 A3026 RMK CU1CI1CI3 TR SLP249=
METAR
LIEU
CYOW - OTTAWA/MACDONALD-CARTIER INTL/ON
DATE - HEURE
16 SEPTEMBRE 2021 - 1300 UTC
VENT
100 VRAIS @ 3  NOEUDS
VISIBILITE
15 MILLES TERR.
PORTEE VISUELLE DE PISTE
METEO
NEBULOSITE
QUELQUES NUAGES (1/8 - 2/8) 2000  PI
QUELQUES NUAGES (1/8 - 2/8) 20000  PI
NUAGES EPARS (3/8 - 4/8) 25000  PI
TEMP / PT DE ROSEE
15 C / 13 C
ALTIMETRE
30.26 PO HG
TEMPS RECENT
CISAILLEMENT

TAF CYOW 161442Z 1615/1712 VRB03KT P6SM FEW020 SCT250 FM161800 11008KT P6SM FEW040 PROB30 1707/1712 1/2SM FG VV002 RMK NXT FCST BY 161800Z=
TAF
LIEU

CYOW - OTTAWA/MACDONALD-CARTIER INTL/ON
VALIDITE [UTC]
16 SEP - 1442 à
17 SEP - 1200
 
PERIODES
[UTC]
VENT
[DEGRES VRAIS]
VISIBILITE
[MILLES TERR.]
METEO
NEBULOSITE
[PIEDS AGL]
 
16 SEP - 1500 à
16 SEP - 1800
VARIABLE @ 3 NOEUDS
6+
---
2000 QUELQUES
25000 EPARS
 
16 SEP - 1800 à
17 SEP - 1200
110 @ 8 NOEUDS
6+
---
4000 QUELQUES
30% PROBABILITE
17 SEP - 0700 à
17 SEP - 1200
 
1/2
BROUILLARD
VISIBILITE VERTICALE 200
REMARQUES
LA PREVISION SUIVANTE SERA EMISE POUR 1800 UTC LE 16


Votre heure Heure UTC
Données météorologiques fournies par Environnement Canada et NAV CANADA